sensor_id;sensor_type;location;lat;lon;timestamp;temperature;humidity
31369;DHT22;18004;48.416;10.066;2024-03-25T00:01:04;3.90;99.90
31369;DHT22;18004;48.416;10.066;2024-03-25T00:03:30;4.00;99.90
31369;DHT22;18004;48.416;10.066;2024-03-25T00:05:56;3.90;99.90
31369;DHT22;18004;48.416;10.066;2024-03-25T00:08:22;3.90;99.90
31369;DHT22;18004;48.416;10.066;2024-03-25T00:10:48;3.90;99.90
31369;DHT22;18004;48.416;10.066;2024-03-25T00:13:14;3.90;99.90
31369;DHT22;18004;48.416;10.066;2024-03-25T00:15:40;3.90;99.90
31369;DHT22;18004;48.416;10.066;2024-03-25T00:18:07;3.90;99.90
31369;DHT22;18004;48.416;10.066;2024-03-25T00:20:33;3.90;99.90
31369;DHT22;18004;48.416;10.066;2024-03-25T00:22:59;3.80;99.90
31369;DHT22;18004;48.416;10.066;2024-03-25T00:25:25;3.90;99.90
31369;DHT22;18004;48.416;10.066;2024-03-25T00:27:51;3.80;99.90
31369;DHT22;18004;48.416;10.066;2024-03-25T00:30:16;3.80;99.90
31369;DHT22;18004;48.416;10.066;2024-03-25T00:32:42;3.80;99.90
31369;DHT22;18004;48.416;10.066;2024-03-25T00:35:08;3.80;99.90
31369;DHT22;18004;48.416;10.066;2024-03-25T00:37:34;3.80;99.90
31369;DHT22;18004;48.416;10.066;2024-03-25T00:39:59;3.80;99.90
31369;DHT22;18004;48.416;10.066;2024-03-25T00:42:25;3.80;99.90
31369;DHT22;18004;48.416;10.066;2024-03-25T00:44:51;3.80;99.90
31369;DHT22;18004;48.416;10.066;2024-03-25T00:47:17;3.80;99.90
31369;DHT22;18004;48.416;10.066;2024-03-25T00:49:42;3.80;99.90
31369;DHT22;18004;48.416;10.066;2024-03-25T00:52:08;3.70;99.90
31369;DHT22;18004;48.416;10.066;2024-03-25T00:54:34;3.80;99.90
31369;DHT22;18004;48.416;10.066;2024-03-25T00:57:00;3.80;99.90
31369;DHT22;18004;48.416;10.066;2024-03-25T00:59:25;3.80;99.90
31369;DHT22;18004;48.416;10.066;2024-03-25T01:01:51;3.80;99.90
31369;DHT22;18004;48.416;10.066;2024-03-25T01:04:17;3.80;99.90
31369;DHT22;18004;48.416;10.066;2024-03-25T01:06:43;3.80;99.90
31369;DHT22;18004;48.416;10.066;2024-03-25T01:09:09;3.80;99.90
31369;DHT22;18004;48.416;10.066;2024-03-25T01:11:35;3.80;99.90
31369;DHT22;18004;48.416;10.066;2024-03-25T01:14:01;3.80;99.90
31369;DHT22;18004;48.416;10.066;2024-03-25T01:16:27;3.80;99.90
31369;DHT22;18004;48.416;10.066;2024-03-25T01:18:53;3.80;99.90
31369;DHT22;18004;48.416;10.066;2024-03-25T01:21:19;3.80;99.90
31369;DHT22;18004;48.416;10.066;2024-03-25T01:23:45;3.70;99.90
31369;DHT22;18004;48.416;10.066;2024-03-25T01:26:10;3.70;99.90
31369;DHT22;18004;48.416;10.066;2024-03-25T01:28:36;3.70;99.90
31369;DHT22;18004;48.416;10.066;2024-03-25T01:31:02;3.70;99.90
31369;DHT22;18004;48.416;10.066;2024-03-25T01:33:28;3.70;99.90
31369;DHT22;18004;48.416;10.066;2024-03-25T01:35:53;3.70;99.90
31369;DHT22;18004;48.416;10.066;2024-03-25T01:38:21;3.70;99.90
31369;DHT22;18004;48.416;10.066;2024-03-25T01:40:47;3.70;99.90
31369;DHT22;18004;48.416;10.066;2024-03-25T01:43:13;3.70;99.90
31369;DHT22;18004;48.416;10.066;2024-03-25T01:45:39;3.70;99.90
31369;DHT22;18004;48.416;10.066;2024-03-25T01:48:06;3.60;99.90
31369;DHT22;18004;48.416;10.066;2024-03-25T01:50:35;3.60;99.90
31369;DHT22;18004;48.416;10.066;2024-03-25T01:53:02;3.60;99.90
31369;DHT22;18004;48.416;10.066;2024-03-25T01:55:29;3.60;99.90
31369;DHT22;18004;48.416;10.066;2024-03-25T01:57:56;3.50;99.90
31369;DHT22;18004;48.416;10.066;2024-03-25T02:00:24;3.60;99.90
31369;DHT22;18004;48.416;10.066;2024-03-25T02:02:51;3.50;99.90
31369;DHT22;18004;48.416;10.066;2024-03-25T02:05:17;3.50;99.90
31369;DHT22;18004;48.416;10.066;2024-03-25T02:07:44;3.50;99.90
31369;DHT22;18004;48.416;10.066;2024-03-25T02:10:11;3.50;99.90
31369;DHT22;18004;48.416;10.066;2024-03-25T02:12:41;3.50;99.90
31369;DHT22;18004;48.416;10.066;2024-03-25T02:15:08;3.50;99.90
31369;DHT22;18004;48.416;10.066;2024-03-25T02:17:34;3.50;99.90
31369;DHT22;18004;48.416;10.066;2024-03-25T02:20:03;3.40;99.90
31369;DHT22;18004;48.416;10.066;2024-03-25T02:22:31;3.40;99.90
31369;DHT22;18004;48.416;10.066;2024-03-25T02:24:58;3.50;99.90
31369;DHT22;18004;48.416;10.066;2024-03-25T02:27:25;3.40;99.90
31369;DHT22;18004;48.416;10.066;2024-03-25T02:29:54;3.30;99.90
31369;DHT22;18004;48.416;10.066;2024-03-25T02:32:20;3.30;99.90
31369;DHT22;18004;48.416;10.066;2024-03-25T02:34:52;3.30;99.90
31369;DHT22;18004;48.416;10.066;2024-03-25T02:37:19;3.30;99.90
31369;DHT22;18004;48.416;10.066;2024-03-25T02:39:45;3.30;99.90
31369;DHT22;18004;48.416;10.066;2024-03-25T02:42:11;3.30;99.90
31369;DHT22;18004;48.416;10.066;2024-03-25T02:44:37;3.30;99.90
31369;DHT22;18004;48.416;10.066;2024-03-25T02:47:03;3.30;99.90
31369;DHT22;18004;48.416;10.066;2024-03-25T02:49:29;3.20;99.90
31369;DHT22;18004;48.416;10.066;2024-03-25T02:51:55;3.20;99.90
31369;DHT22;18004;48.416;10.066;2024-03-25T02:54:21;3.20;99.90
31369;DHT22;18004;48.416;10.066;2024-03-25T02:56:47;3.20;99.90
31369;DHT22;18004;48.416;10.066;2024-03-25T02:59:13;3.20;99.90
31369;DHT22;18004;48.416;10.066;2024-03-25T03:01:38;3.20;99.90
31369;DHT22;18004;48.416;10.066;2024-03-25T03:04:04;3.20;99.90
31369;DHT22;18004;48.416;10.066;2024-03-25T03:06:30;3.20;99.90
31369;DHT22;18004;48.416;10.066;2024-03-25T03:08:56;3.20;99.90
31369;DHT22;18004;48.416;10.066;2024-03-25T03:11:21;3.20;99.90
31369;DHT22;18004;48.416;10.066;2024-03-25T03:13:47;3.20;99.90
31369;DHT22;18004;48.416;10.066;2024-03-25T03:16:13;3.20;99.90
31369;DHT22;18004;48.416;10.066;2024-03-25T03:18:39;3.10;99.90
31369;DHT22;18004;48.416;10.066;2024-03-25T03:21:05;3.10;99.90
31369;DHT22;18004;48.416;10.066;2024-03-25T03:23:31;3.10;99.90
31369;DHT22;18004;48.416;10.066;2024-03-25T03:25:56;3.10;99.90
31369;DHT22;18004;48.416;10.066;2024-03-25T03:28:25;3.10;99.90
31369;DHT22;18004;48.416;10.066;2024-03-25T03:30:51;3.10;99.90
31369;DHT22;18004;48.416;10.066;2024-03-25T03:33:17;3.10;99.90
31369;DHT22;18004;48.416;10.066;2024-03-25T03:35:43;3.00;99.90
31369;DHT22;18004;48.416;10.066;2024-03-25T03:38:08;3.00;99.90
31369;DHT22;18004;48.416;10.066;2024-03-25T03:40:34;3.00;99.90
31369;DHT22;18004;48.416;10.066;2024-03-25T03:43:00;3.00;99.90
31369;DHT22;18004;48.416;10.066;2024-03-25T03:45:26;3.00;99.90
31369;DHT22;18004;48.416;10.066;2024-03-25T03:47:52;3.00;99.90
31369;DHT22;18004;48.416;10.066;2024-03-25T03:50:17;3.00;99.90
31369;DHT22;18004;48.416;10.066;2024-03-25T03:52:43;3.00;99.90
31369;DHT22;18004;48.416;10.066;2024-03-25T03:55:09;3.00;99.90
31369;DHT22;18004;48.416;10.066;2024-03-25T03:57:34;2.90;99.90
31369;DHT22;18004;48.416;10.066;2024-03-25T04:00:00;2.90;99.90
31369;DHT22;18004;48.416;10.066;2024-03-25T04:02:28;2.90;99.90
31369;DHT22;18004;48.416;10.066;2024-03-25T04:04:54;2.80;99.90
31369;DHT22;18004;48.416;10.066;2024-03-25T04:07:20;2.80;99.90
31369;DHT22;18004;48.416;10.066;2024-03-25T04:09:48;2.70;99.90
31369;DHT22;18004;48.416;10.066;2024-03-25T04:12:13;2.70;99.90
31369;DHT22;18004;48.416;10.066;2024-03-25T04:14:39;2.60;99.90
31369;DHT22;18004;48.416;10.066;2024-03-25T04:17:05;2.50;99.90
31369;DHT22;18004;48.416;10.066;2024-03-25T04:19:31;2.50;99.90
31369;DHT22;18004;48.416;10.066;2024-03-25T04:21:57;2.40;99.90
31369;DHT22;18004;48.416;10.066;2024-03-25T04:24:23;2.40;99.90
31369;DHT22;18004;48.416;10.066;2024-03-25T04:26:49;2.30;99.90
31369;DHT22;18004;48.416;10.066;2024-03-25T04:29:16;2.40;99.90
31369;DHT22;18004;48.416;10.066;2024-03-25T04:31:41;2.40;99.90
31369;DHT22;18004;48.416;10.066;2024-03-25T04:34:07;2.30;99.90
31369;DHT22;18004;48.416;10.066;2024-03-25T04:36:33;2.30;99.90
31369;DHT22;18004;48.416;10.066;2024-03-25T04:38:59;2.30;99.90
31369;DHT22;18004;48.416;10.066;2024-03-25T04:41:24;2.30;99.90
31369;DHT22;18004;48.416;10.066;2024-03-25T04:43:50;2.30;99.90
31369;DHT22;18004;48.416;10.066;2024-03-25T04:46:16;2.30;99.90
31369;DHT22;18004;48.416;10.066;2024-03-25T04:48:41;2.20;99.90
31369;DHT22;18004;48.416;10.066;2024-03-25T04:51:07;2.20;99.90
31369;DHT22;18004;48.416;10.066;2024-03-25T04:53:34;2.20;99.90
31369;DHT22;18004;48.416;10.066;2024-03-25T04:56:00;2.20;99.90
31369;DHT22;18004;48.416;10.066;2024-03-25T04:58:26;2.20;99.90
31369;DHT22;18004;48.416;10.066;2024-03-25T05:00:52;2.20;99.90
31369;DHT22;18004;48.416;10.066;2024-03-25T05:03:18;2.20;99.90
31369;DHT22;18004;48.416;10.066;2024-03-25T05:05:44;2.20;99.90
31369;DHT22;18004;48.416;10.066;2024-03-25T05:08:09;2.30;99.90
31369;DHT22;18004;48.416;10.066;2024-03-25T05:10:35;2.30;99.90
31369;DHT22;18004;48.416;10.066;2024-03-25T05:13:01;2.30;99.90
31369;DHT22;18004;48.416;10.066;2024-03-25T05:15:27;2.30;99.90
31369;DHT22;18004;48.416;10.066;2024-03-25T05:17:52;2.20;99.90
31369;DHT22;18004;48.416;10.066;2024-03-25T05:20:18;2.30;99.90
31369;DHT22;18004;48.416;10.066;2024-03-25T05:22:44;2.30;99.90
31369;DHT22;18004;48.416;10.066;2024-03-25T05:25:10;2.30;99.90
31369;DHT22;18004;48.416;10.066;2024-03-25T05:27:35;2.30;99.90
31369;DHT22;18004;48.416;10.066;2024-03-25T05:30:01;2.30;99.90
31369;DHT22;18004;48.416;10.066;2024-03-25T05:32:27;2.30;99.90
31369;DHT22;18004;48.416;10.066;2024-03-25T05:34:53;2.20;99.90
31369;DHT22;18004;48.416;10.066;2024-03-25T05:37:19;2.20;99.90
31369;DHT22;18004;48.416;10.066;2024-03-25T05:39:45;2.30;99.90
31369;DHT22;18004;48.416;10.066;2024-03-25T05:42:10;2.30;99.90
31369;DHT22;18004;48.416;10.066;2024-03-25T05:44:36;2.30;99.90
31369;DHT22;18004;48.416;10.066;2024-03-25T05:47:02;2.30;99.90
31369;DHT22;18004;48.416;10.066;2024-03-25T05:49:28;2.30;99.90
31369;DHT22;18004;48.416;10.066;2024-03-25T05:51:53;2.30;99.90
31369;DHT22;18004;48.416;10.066;2024-03-25T05:54:19;2.30;99.90
31369;DHT22;18004;48.416;10.066;2024-03-25T05:56:45;2.30;99.90
31369;DHT22;18004;48.416;10.066;2024-03-25T05:59:11;2.30;99.90
31369;DHT22;18004;48.416;10.066;2024-03-25T06:01:36;2.30;99.90
31369;DHT22;18004;48.416;10.066;2024-03-25T06:04:03;2.40;99.90
31369;DHT22;18004;48.416;10.066;2024-03-25T06:06:29;2.40;99.90
31369;DHT22;18004;48.416;10.066;2024-03-25T06:08:55;2.40;99.90
31369;DHT22;18004;48.416;10.066;2024-03-25T06:11:21;2.50;99.90
31369;DHT22;18004;48.416;10.066;2024-03-25T06:13:47;2.50;99.90
31369;DHT22;18004;48.416;10.066;2024-03-25T06:16:13;2.50;99.90
31369;DHT22;18004;48.416;10.066;2024-03-25T06:18:39;2.50;99.90
31369;DHT22;18004;48.416;10.066;2024-03-25T06:21:06;2.50;99.90
31369;DHT22;18004;48.416;10.066;2024-03-25T06:23:32;2.50;99.90
31369;DHT22;18004;48.416;10.066;2024-03-25T06:25:58;2.60;99.90
31369;DHT22;18004;48.416;10.066;2024-03-25T06:28:23;2.60;99.90
31369;DHT22;18004;48.416;10.066;2024-03-25T06:30:50;2.60;99.90
31369;DHT22;18004;48.416;10.066;2024-03-25T06:33:35;2.70;99.90
31369;DHT22;18004;48.416;10.066;2024-03-25T06:36:20;2.70;99.90
31369;DHT22;18004;48.416;10.066;2024-03-25T06:38:46;2.70;99.90
31369;DHT22;18004;48.416;10.066;2024-03-25T06:41:12;2.80;99.90
31369;DHT22;18004;48.416;10.066;2024-03-25T06:43:38;2.80;99.90
31369;DHT22;18004;48.416;10.066;2024-03-25T06:46:04;2.80;99.90
31369;DHT22;18004;48.416;10.066;2024-03-25T06:48:30;2.80;99.90
31369;DHT22;18004;48.416;10.066;2024-03-25T06:50:58;2.80;99.90
31369;DHT22;18004;48.416;10.066;2024-03-25T06:53:24;2.80;99.90
31369;DHT22;18004;48.416;10.066;2024-03-25T06:55:53;2.70;99.90
31369;DHT22;18004;48.416;10.066;2024-03-25T06:58:20;2.70;99.90
31369;DHT22;18004;48.416;10.066;2024-03-25T07:00:47;2.80;99.90
31369;DHT22;18004;48.416;10.066;2024-03-25T07:03:15;2.80;99.90
31369;DHT22;18004;48.416;10.066;2024-03-25T07:05:41;2.70;99.90
31369;DHT22;18004;48.416;10.066;2024-03-25T07:08:06;2.70;99.90
31369;DHT22;18004;48.416;10.066;2024-03-25T07:10:32;2.80;99.90
31369;DHT22;18004;48.416;10.066;2024-03-25T07:12:58;2.90;99.90
31369;DHT22;18004;48.416;10.066;2024-03-25T07:15:24;3.00;99.90
31369;DHT22;18004;48.416;10.066;2024-03-25T07:17:49;3.00;99.90
31369;DHT22;18004;48.416;10.066;2024-03-25T07:20:15;3.00;99.90
31369;DHT22;18004;48.416;10.066;2024-03-25T07:22:41;3.10;99.90
31369;DHT22;18004;48.416;10.066;2024-03-25T07:25:07;3.10;99.90
31369;DHT22;18004;48.416;10.066;2024-03-25T07:27:35;3.20;99.90
31369;DHT22;18004;48.416;10.066;2024-03-25T07:30:00;3.20;99.90
31369;DHT22;18004;48.416;10.066;2024-03-25T07:32:26;3.20;99.90
31369;DHT22;18004;48.416;10.066;2024-03-25T07:34:52;3.20;99.90
31369;DHT22;18004;48.416;10.066;2024-03-25T07:37:18;3.30;99.90
31369;DHT22;18004;48.416;10.066;2024-03-25T07:39:46;3.40;99.90
31369;DHT22;18004;48.416;10.066;2024-03-25T07:42:11;3.50;99.90
31369;DHT22;18004;48.416;10.066;2024-03-25T07:44:37;3.70;99.90
31369;DHT22;18004;48.416;10.066;2024-03-25T07:47:03;3.90;99.90
31369;DHT22;18004;48.416;10.066;2024-03-25T07:49:29;4.00;99.90
31369;DHT22;18004;48.416;10.066;2024-03-25T07:51:55;4.10;99.90
31369;DHT22;18004;48.416;10.066;2024-03-25T07:54:21;4.20;99.90
31369;DHT22;18004;48.416;10.066;2024-03-25T07:56:47;4.30;99.90
31369;DHT22;18004;48.416;10.066;2024-03-25T07:59:12;4.20;99.90
31369;DHT22;18004;48.416;10.066;2024-03-25T08:01:38;4.40;99.90
31369;DHT22;18004;48.416;10.066;2024-03-25T08:04:04;4.70;99.90
31369;DHT22;18004;48.416;10.066;2024-03-25T08:06:30;4.70;99.90
31369;DHT22;18004;48.416;10.066;2024-03-25T08:08:55;4.80;99.90
31369;DHT22;18004;48.416;10.066;2024-03-25T08:11:21;4.90;99.90
31369;DHT22;18004;48.416;10.066;2024-03-25T08:13:48;5.00;99.90
31369;DHT22;18004;48.416;10.066;2024-03-25T08:16:14;5.10;99.90
31369;DHT22;18004;48.416;10.066;2024-03-25T08:18:40;5.20;99.90
31369;DHT22;18004;48.416;10.066;2024-03-25T08:21:06;5.30;99.90
31369;DHT22;18004;48.416;10.066;2024-03-25T08:23:31;5.60;99.90
31369;DHT22;18004;48.416;10.066;2024-03-25T08:25:57;5.70;99.90
31369;DHT22;18004;48.416;10.066;2024-03-25T08:28:23;5.90;99.90
31369;DHT22;18004;48.416;10.066;2024-03-25T08:30:48;6.00;99.90
31369;DHT22;18004;48.416;10.066;2024-03-25T08:33:14;6.20;99.90
31369;DHT22;18004;48.416;10.066;2024-03-25T08:35:40;6.30;99.90
31369;DHT22;18004;48.416;10.066;2024-03-25T08:38:05;6.20;99.90
31369;DHT22;18004;48.416;10.066;2024-03-25T08:40:31;6.20;99.90
31369;DHT22;18004;48.416;10.066;2024-03-25T08:42:57;6.30;99.90
31369;DHT22;18004;48.416;10.066;2024-03-25T08:45:23;6.20;99.90
31369;DHT22;18004;48.416;10.066;2024-03-25T08:47:49;6.40;99.90
31369;DHT22;18004;48.416;10.066;2024-03-25T08:50:14;6.40;99.90
31369;DHT22;18004;48.416;10.066;2024-03-25T08:52:40;6.40;99.90
31369;DHT22;18004;48.416;10.066;2024-03-25T08:55:06;6.60;99.90
31369;DHT22;18004;48.416;10.066;2024-03-25T08:57:32;6.70;99.90
31369;DHT22;18004;48.416;10.066;2024-03-25T08:59:58;6.60;99.90
31369;DHT22;18004;48.416;10.066;2024-03-25T09:02:23;6.80;99.90
31369;DHT22;18004;48.416;10.066;2024-03-25T09:04:49;7.00;99.90
31369;DHT22;18004;48.416;10.066;2024-03-25T09:07:15;7.10;99.90
31369;DHT22;18004;48.416;10.066;2024-03-25T09:09:41;7.00;99.90
31369;DHT22;18004;48.416;10.066;2024-03-25T09:12:25;7.20;99.90
31369;DHT22;18004;48.416;10.066;2024-03-25T09:14:50;7.10;99.90
31369;DHT22;18004;48.416;10.066;2024-03-25T09:17:17;7.30;99.90
31369;DHT22;18004;48.416;10.066;2024-03-25T09:19:43;7.40;97.20
31369;DHT22;18004;48.416;10.066;2024-03-25T09:22:08;7.30;95.00
31369;DHT22;18004;48.416;10.066;2024-03-25T09:24:34;7.50;96.20
31369;DHT22;18004;48.416;10.066;2024-03-25T09:27:00;7.60;94.70
31369;DHT22;18004;48.416;10.066;2024-03-25T09:29:25;7.80;94.10
31369;DHT22;18004;48.416;10.066;2024-03-25T09:31:51;7.90;90.20
31369;DHT22;18004;48.416;10.066;2024-03-25T09:34:17;8.00;86.00
31369;DHT22;18004;48.416;10.066;2024-03-25T09:36:43;8.00;83.50
31369;DHT22;18004;48.416;10.066;2024-03-25T09:39:08;8.10;90.10
31369;DHT22;18004;48.416;10.066;2024-03-25T09:41:35;8.20;87.60
31369;DHT22;18004;48.416;10.066;2024-03-25T09:44:03;8.40;89.20
31369;DHT22;18004;48.416;10.066;2024-03-25T09:46:31;8.20;67.10
31369;DHT22;18004;48.416;10.066;2024-03-25T09:48:59;8.40;66.80
31369;DHT22;18004;48.416;10.066;2024-03-25T09:51:24;8.50;65.60
31369;DHT22;18004;48.416;10.066;2024-03-25T09:53:50;8.80;58.40
31369;DHT22;18004;48.416;10.066;2024-03-25T09:56:16;8.90;50.50
31369;DHT22;18004;48.416;10.066;2024-03-25T09:58:44;9.10;41.40
31369;DHT22;18004;48.416;10.066;2024-03-25T10:01:10;9.00;34.60
31369;DHT22;18004;48.416;10.066;2024-03-25T10:03:36;8.90;30.00
31369;DHT22;18004;48.416;10.066;2024-03-25T10:06:01;8.90;28.20
31369;DHT22;18004;48.416;10.066;2024-03-25T10:08:27;9.00;29.20
31369;DHT22;18004;48.416;10.066;2024-03-25T10:10:56;9.30;35.60
31369;DHT22;18004;48.416;10.066;2024-03-25T10:13:22;9.40;25.20
31369;DHT22;18004;48.416;10.066;2024-03-25T10:15:48;9.40;21.80
31369;DHT22;18004;48.416;10.066;2024-03-25T10:18:14;9.50;22.60
31369;DHT22;18004;48.416;10.066;2024-03-25T10:20:52;9.60;21.80
31369;DHT22;18004;48.416;10.066;2024-03-25T10:23:25;9.70;14.70
31369;DHT22;18004;48.416;10.066;2024-03-25T10:25:54;9.40;14.80
31369;DHT22;18004;48.416;10.066;2024-03-25T10:28:20;9.40;13.40
31369;DHT22;18004;48.416;10.066;2024-03-25T10:30:46;9.50;10.70
31369;DHT22;18004;48.416;10.066;2024-03-25T10:33:13;9.70;12.20
31369;DHT22;18004;48.416;10.066;2024-03-25T10:35:40;9.80;10.20
31369;DHT22;18004;48.416;10.066;2024-03-25T10:38:08;9.80;9.20
31369;DHT22;18004;48.416;10.066;2024-03-25T10:40:37;9.90;10.00
31369;DHT22;18004;48.416;10.066;2024-03-25T10:43:08;9.90;9.30
31369;DHT22;18004;48.416;10.066;2024-03-25T10:45:37;10.00;8.00
31369;DHT22;18004;48.416;10.066;2024-03-25T10:48:12;10.00;6.60
31369;DHT22;18004;48.416;10.066;2024-03-25T10:50:40;10.10;8.30
31369;DHT22;18004;48.416;10.066;2024-03-25T10:53:08;10.20;5.90
31369;DHT22;18004;48.416;10.066;2024-03-25T10:55:36;10.30;5.10
31369;DHT22;18004;48.416;10.066;2024-03-25T10:58:04;10.30;4.50
31369;DHT22;18004;48.416;10.066;2024-03-25T11:00:30;10.20;4.10
31369;DHT22;18004;48.416;10.066;2024-03-25T11:02:56;10.30;4.70
31369;DHT22;18004;48.416;10.066;2024-03-25T11:05:23;10.30;4.80
31369;DHT22;18004;48.416;10.066;2024-03-25T11:07:48;10.30;5.20
31369;DHT22;18004;48.416;10.066;2024-03-25T11:10:15;10.40;4.70
31369;DHT22;18004;48.416;10.066;2024-03-25T11:12:42;10.50;3.90
31369;DHT22;18004;48.416;10.066;2024-03-25T11:15:09;10.30;3.80
31369;DHT22;18004;48.416;10.066;2024-03-25T11:17:36;10.30;1.30
31369;DHT22;18004;48.416;10.066;2024-03-25T11:20:15;10.40;2.30
31369;DHT22;18004;48.416;10.066;2024-03-25T11:22:49;10.60;1.00
31369;DHT22;18004;48.416;10.066;2024-03-25T11:25:15;10.50;1.30
31369;DHT22;18004;48.416;10.066;2024-03-25T11:27:43;10.60;1.00
31369;DHT22;18004;48.416;10.066;2024-03-25T11:30:13;10.80;1.00
31369;DHT22;18004;48.416;10.066;2024-03-25T11:32:51;10.90;1.00
31369;DHT22;18004;48.416;10.066;2024-03-25T11:35:17;11.00;1.00
31369;DHT22;18004;48.416;10.066;2024-03-25T11:37:43;11.00;1.00
31369;DHT22;18004;48.416;10.066;2024-03-25T11:40:10;11.10;1.00
31369;DHT22;18004;48.416;10.066;2024-03-25T11:42:39;11.10;1.00
31369;DHT22;18004;48.416;10.066;2024-03-25T11:45:10;11.20;1.00
31369;DHT22;18004;48.416;10.066;2024-03-25T11:47:41;11.20;1.00
31369;DHT22;18004;48.416;10.066;2024-03-25T11:50:08;11.20;1.00
31369;DHT22;18004;48.416;10.066;2024-03-25T11:52:34;11.10;1.00
31369;DHT22;18004;48.416;10.066;2024-03-25T11:55:00;11.20;1.00
31369;DHT22;18004;48.416;10.066;2024-03-25T11:57:25;11.10;1.00
31369;DHT22;18004;48.416;10.066;2024-03-25T11:59:51;11.30;1.00
31369;DHT22;18004;48.416;10.066;2024-03-25T12:02:18;11.40;1.00
31369;DHT22;18004;48.416;10.066;2024-03-25T12:04:44;10.90;1.00
31369;DHT22;18004;48.416;10.066;2024-03-25T12:07:13;11.10;1.00
31369;DHT22;18004;48.416;10.066;2024-03-25T12:09:39;11.20;1.00
31369;DHT22;18004;48.416;10.066;2024-03-25T12:12:25;11.40;1.00
31369;DHT22;18004;48.416;10.066;2024-03-25T12:14:51;11.50;1.00
31369;DHT22;18004;48.416;10.066;2024-03-25T12:17:18;11.50;1.00
31369;DHT22;18004;48.416;10.066;2024-03-25T12:19:45;11.50;1.00
31369;DHT22;18004;48.416;10.066;2024-03-25T12:22:25;11.50;1.00
31369;DHT22;18004;48.416;10.066;2024-03-25T12:24:51;11.30;1.00
31369;DHT22;18004;48.416;10.066;2024-03-25T12:27:16;11.50;1.00
31369;DHT22;18004;48.416;10.066;2024-03-25T12:29:43;11.70;1.00
31369;DHT22;18004;48.416;10.066;2024-03-25T12:32:10;11.40;1.00
31369;DHT22;18004;48.416;10.066;2024-03-25T12:34:35;11.00;1.00
31369;DHT22;18004;48.416;10.066;2024-03-25T12:37:02;11.20;1.00
31369;DHT22;18004;48.416;10.066;2024-03-25T12:39:30;11.50;1.00
31369;DHT22;18004;48.416;10.066;2024-03-25T12:41:56;11.60;1.00
31369;DHT22;18004;48.416;10.066;2024-03-25T12:44:21;11.70;1.00
31369;DHT22;18004;48.416;10.066;2024-03-25T12:46:47;11.50;1.00
31369;DHT22;18004;48.416;10.066;2024-03-25T12:49:13;11.40;1.00
31369;DHT22;18004;48.416;10.066;2024-03-25T12:51:39;11.50;1.00
31369;DHT22;18004;48.416;10.066;2024-03-25T12:54:04;11.50;1.00
31369;DHT22;18004;48.416;10.066;2024-03-25T12:56:30;11.20;1.00
31369;DHT22;18004;48.416;10.066;2024-03-25T12:58:56;10.90;1.00
31369;DHT22;18004;48.416;10.066;2024-03-25T13:01:22;11.10;1.00
31369;DHT22;18004;48.416;10.066;2024-03-25T13:03:47;11.20;1.00
31369;DHT22;18004;48.416;10.066;2024-03-25T13:06:13;11.40;1.00
31369;DHT22;18004;48.416;10.066;2024-03-25T13:08:39;11.70;1.00
31369;DHT22;18004;48.416;10.066;2024-03-25T13:11:05;11.70;1.00
31369;DHT22;18004;48.416;10.066;2024-03-25T13:13:30;11.60;1.00
31369;DHT22;18004;48.416;10.066;2024-03-25T13:15:56;11.70;1.00
31369;DHT22;18004;48.416;10.066;2024-03-25T13:18:22;11.80;1.00
31369;DHT22;18004;48.416;10.066;2024-03-25T13:20:48;11.80;1.00
31369;DHT22;18004;48.416;10.066;2024-03-25T13:23:14;11.90;1.00
31369;DHT22;18004;48.416;10.066;2024-03-25T13:25:39;12.00;1.00
31369;DHT22;18004;48.416;10.066;2024-03-25T13:28:05;12.00;1.00
31369;DHT22;18004;48.416;10.066;2024-03-25T13:30:31;12.00;1.00
31369;DHT22;18004;48.416;10.066;2024-03-25T13:32:58;11.60;1.00
31369;DHT22;18004;48.416;10.066;2024-03-25T13:35:23;11.20;1.00
31369;DHT22;18004;48.416;10.066;2024-03-25T13:37:49;11.50;1.00
31369;DHT22;18004;48.416;10.066;2024-03-25T13:40:15;11.70;1.00
31369;DHT22;18004;48.416;10.066;2024-03-25T13:42:41;11.60;1.00
31369;DHT22;18004;48.416;10.066;2024-03-25T13:45:07;11.50;1.00
31369;DHT22;18004;48.416;10.066;2024-03-25T13:47:32;11.60;1.00
31369;DHT22;18004;48.416;10.066;2024-03-25T13:50:05;11.70;1.00
31369;DHT22;18004;48.416;10.066;2024-03-25T13:52:35;12.00;1.00
31369;DHT22;18004;48.416;10.066;2024-03-25T13:55:01;12.10;1.00
31369;DHT22;18004;48.416;10.066;2024-03-25T13:57:27;12.20;1.00
31369;DHT22;18004;48.416;10.066;2024-03-25T13:59:53;12.10;1.00
31369;DHT22;18004;48.416;10.066;2024-03-25T14:02:19;11.50;1.00
31369;DHT22;18004;48.416;10.066;2024-03-25T14:04:45;11.70;1.00
31369;DHT22;18004;48.416;10.066;2024-03-25T14:07:11;11.90;1.00
31369;DHT22;18004;48.416;10.066;2024-03-25T14:09:37;11.90;1.00
31369;DHT22;18004;48.416;10.066;2024-03-25T14:12:03;11.80;1.00
31369;DHT22;18004;48.416;10.066;2024-03-25T14:14:31;11.90;1.00
31369;DHT22;18004;48.416;10.066;2024-03-25T14:16:57;11.80;1.00
31369;DHT22;18004;48.416;10.066;2024-03-25T14:19:23;11.80;1.00
31369;DHT22;18004;48.416;10.066;2024-03-25T14:21:50;12.00;1.00
31369;DHT22;18004;48.416;10.066;2024-03-25T14:24:16;11.70;1.00
31369;DHT22;18004;48.416;10.066;2024-03-25T14:26:41;11.50;1.00
31369;DHT22;18004;48.416;10.066;2024-03-25T14:29:07;11.60;1.00
31369;DHT22;18004;48.416;10.066;2024-03-25T14:31:33;11.50;1.00
31369;DHT22;18004;48.416;10.066;2024-03-25T14:33:59;11.60;1.00
31369;DHT22;18004;48.416;10.066;2024-03-25T14:36:24;11.70;1.00
31369;DHT22;18004;48.416;10.066;2024-03-25T14:38:50;11.40;1.00
31369;DHT22;18004;48.416;10.066;2024-03-25T14:41:20;11.50;1.00
31369;DHT22;18004;48.416;10.066;2024-03-25T14:43:47;11.50;1.00
31369;DHT22;18004;48.416;10.066;2024-03-25T14:46:14;11.50;1.00
31369;DHT22;18004;48.416;10.066;2024-03-25T14:48:40;11.40;1.00
31369;DHT22;18004;48.416;10.066;2024-03-25T14:51:06;11.40;1.00
31369;DHT22;18004;48.416;10.066;2024-03-25T14:53:31;11.50;1.00
31369;DHT22;18004;48.416;10.066;2024-03-25T14:55:57;11.50;1.00
31369;DHT22;18004;48.416;10.066;2024-03-25T14:58:23;11.60;1.00
31369;DHT22;18004;48.416;10.066;2024-03-25T15:00:49;11.60;1.00
31369;DHT22;18004;48.416;10.066;2024-03-25T15:03:14;11.50;1.00
31369;DHT22;18004;48.416;10.066;2024-03-25T15:05:40;11.60;1.00
31369;DHT22;18004;48.416;10.066;2024-03-25T15:08:06;11.60;1.00
31369;DHT22;18004;48.416;10.066;2024-03-25T15:10:35;11.60;1.00
31369;DHT22;18004;48.416;10.066;2024-03-25T15:13:01;11.40;1.00
31369;DHT22;18004;48.416;10.066;2024-03-25T15:15:27;11.40;1.00
31369;DHT22;18004;48.416;10.066;2024-03-25T15:17:53;11.50;1.00
31369;DHT22;18004;48.416;10.066;2024-03-25T15:20:19;11.60;1.00
31369;DHT22;18004;48.416;10.066;2024-03-25T15:22:45;11.80;1.00
31369;DHT22;18004;48.416;10.066;2024-03-25T15:25:10;11.40;1.00